Time;durP1;ratioP1;P1;durP2;ratioP2;P2;SDS_P1;SDS_P2;PMS_P1;PMS_P2;Temp;Humidity;BMP_temperature;BMP_pressure;BME280_temperature;BME280_humidity;BME280_pressure;Samples;Min_cycle;Max_cycle;Signal;HPM_P1;HPM_P2
2023/04/05 00:02:28;;;;;;;8.47;5.03;;;4.10;1.00;;;;;;4996250;28;20943;-79
2023/04/05 00:04:58;;;;;;;10.43;5.03;;;4.00;1.00;;;;;;4997608;28;20484;-80
2023/04/05 00:07:25;;;;;;;7.70;4.50;;;4.00;1.00;;;;;;4996907;28;20456;-79
2023/04/05 00:09:52;;;;;;;6.50;4.53;;;4.00;1.00;;;;;;4996875;28;20936;-79
2023/04/05 00:12:19;;;;;;;9.80;5.27;;;4.00;1.00;;;;;;4996879;28;20451;-79
2023/04/05 00:14:46;;;;;;;7.80;5.03;;;3.90;1.00;;;;;;4995857;28;20527;-80
2023/04/05 00:17:13;;;;;;;6.33;4.63;;;3.90;1.00;;;;;;4997009;28;20497;-79
2023/04/05 00:19:39;;;;;;;7.07;4.93;;;3.90;1.00;;;;;;4996566;28;20466;-80
2023/04/05 00:22:09;;;;;;;10.77;5.17;;;3.80;1.00;;;;;;4996358;28;20457;-79
2023/04/05 00:24:38;;;;;;;9.50;5.53;;;3.80;1.00;;;;;;4996585;28;20452;-79
2023/04/05 00:27:04;;;;;;;7.23;5.70;;;3.80;1.00;;;;;;4996878;28;20451;-79
2023/04/05 00:29:31;;;;;;;6.70;5.10;;;3.70;1.00;;;;;;4994832;28;20903;-80
2023/04/05 00:31:58;;;;;;;9.83;5.30;;;3.60;1.00;;;;;;4995538;28;20451;-79
2023/04/05 00:34:25;;;;;;;9.07;4.37;;;3.60;1.00;;;;;;4996408;28;20449;-79
2023/04/05 00:36:52;;;;;;;8.90;6.00;;;3.50;1.00;;;;;;4996386;28;20451;-79
2023/04/05 00:39:20;;;;;;;9.83;5.47;;;3.40;1.00;;;;;;4997317;28;20457;-80
2023/04/05 00:41:47;;;;;;;8.60;4.73;;;3.40;1.00;;;;;;4996829;28;20421;-79
2023/04/05 00:44:14;;;;;;;10.20;5.73;;;3.30;1.00;;;;;;4997633;28;20428;-80
2023/04/05 00:46:41;;;;;;;9.00;5.03;;;3.20;1.00;;;;;;4997824;28;20434;-79
2023/04/05 00:49:08;;;;;;;9.83;5.30;;;3.10;1.00;;;;;;4991051;28;20457;-79
2023/04/05 00:51:35;;;;;;;8.27;5.60;;;3.10;1.00;;;;;;4995728;28;20549;-79
2023/04/05 00:54:02;;;;;;;9.17;5.60;;;3.10;1.00;;;;;;4996828;28;20529;-79
2023/04/05 00:56:31;;;;;;;9.07;5.50;;;3.00;1.00;;;;;;5002027;28;20457;-79
2023/04/05 00:58:58;;;;;;;9.37;5.27;;;2.90;1.00;;;;;;5005333;28;20479;-78
2023/04/05 01:01:26;;;;;;;8.47;5.47;;;2.80;35.00;;;;;;5003576;28;20462;-78
2023/04/05 01:03:58;;;;;;;9.80;5.00;;;2.80;99.90;;;;;;4997493;28;20453;-79
2023/04/05 01:06:53;;;;;;;9.93;5.60;;;2.80;99.90;;;;;;4995858;28;20490;-78
2023/04/05 01:09:36;;;;;;;6.10;4.37;;;2.70;99.90;;;;;;4995473;28;20537;-79
2023/04/05 01:12:06;;;;;;;11.33;6.03;;;2.70;99.90;;;;;;4992332;28;20445;-80
2023/04/05 01:14:44;;;;;;;6.60;4.93;;;2.60;99.90;;;;;;4995655;28;20494;-80
2023/04/05 01:17:11;;;;;;;10.70;6.10;;;2.60;99.90;;;;;;4995378;28;20424;-77
2023/04/05 01:19:40;;;;;;;9.07;5.50;;;2.50;99.90;;;;;;4995491;28;20453;-78
2023/04/05 01:22:55;;;;;;;10.43;5.57;;;2.60;99.90;;;;;;4994589;28;20442;-78
2023/04/05 01:25:55;;;;;;;10.03;4.83;;;2.50;99.90;;;;;;4995125;28;20442;-80
2023/04/05 01:28:47;;;;;;;11.37;5.77;;;2.50;1.00;;;;;;4963463;28;20554;-80
2023/04/05 01:31:22;;;;;;;10.70;5.47;;;2.40;1.00;;;;;;4994691;28;20823;-79
2023/04/05 01:33:58;;;;;;;9.00;5.90;;;2.40;1.00;;;;;;4995728;28;20466;-77
2023/04/05 01:36:31;;;;;;;8.50;5.70;;;2.30;99.90;;;;;;4996204;28;20457;-79
2023/04/05 01:39:01;;;;;;;9.43;5.13;;;2.30;99.90;;;;;;5007783;28;20453;-78
2023/04/05 01:41:29;;;;;;;12.00;5.00;;;2.30;99.90;;;;;;5006525;28;20550;-79
2023/04/05 01:43:56;;;;;;;7.63;5.10;;;2.20;99.90;;;;;;5006423;28;20454;-80
2023/04/05 01:46:24;;;;;;;8.50;5.90;;;2.20;1.00;;;;;;4996138;28;20465;-80
2023/04/05 01:48:51;;;;;;;7.40;5.63;;;2.20;1.00;;;;;;4995966;28;20967;-80
2023/04/05 01:51:18;;;;;;;7.17;4.93;;;2.10;1.00;;;;;;4994820;28;20444;-80
2023/04/05 01:53:45;;;;;;;9.67;5.80;;;2.10;99.90;;;;;;4995155;28;20461;-81
2023/04/05 01:56:12;;;;;;;11.33;6.10;;;2.10;1.00;;;;;;4995811;28;20439;-80
2023/04/05 01:58:39;;;;;;;7.37;5.67;;;2.00;1.00;;;;;;4995191;28;20981;-78
2023/04/05 02:01:05;;;;;;;9.53;5.83;;;2.00;1.00;;;;;;4975167;28;20432;-81
2023/04/05 02:03:34;;;;;;;9.17;6.60;;;1.90;1.00;;;;;;4975717;28;20460;-81
2023/04/05 02:06:01;;;;;;;8.60;5.53;;;1.80;99.90;;;;;;4995346;28;20433;-79
2023/04/05 02:08:27;;;;;;;11.13;5.53;;;1.80;99.90;;;;;;4994355;28;20457;-79
2023/04/05 02:10:54;;;;;;;9.67;5.53;;;1.80;99.90;;;;;;4993909;28;20451;-80
2023/04/05 02:13:22;;;;;;;9.93;5.80;;;1.80;99.90;;;;;;4994956;28;20546;-78
2023/04/05 02:15:49;;;;;;;13.80;6.40;;;1.80;99.90;;;;;;4994882;28;20554;-79
2023/04/05 02:18:20;;;;;;;8.03;5.67;;;1.80;99.90;;;;;;4994525;28;20448;-80
2023/04/05 02:20:49;;;;;;;11.93;5.23;;;1.70;99.90;;;;;;4993223;28;20421;-78
2023/04/05 02:23:15;;;;;;;9.00;5.70;;;1.70;97.30;;;;;;4994233;28;20577;-78
2023/04/05 02:25:42;;;;;;;10.43;5.33;;;1.70;99.90;;;;;;4994284;28;20523;-80
2023/04/05 02:28:09;;;;;;;6.80;5.67;;;1.60;1.00;;;;;;4993697;28;20938;-78
2023/04/05 02:30:36;;;;;;;9.70;5.80;;;1.60;99.90;;;;;;4993846;28;20463;-78
2023/04/05 02:33:03;;;;;;;8.40;5.57;;;1.60;1.00;;;;;;4993396;28;20533;-78
2023/04/05 02:35:30;;;;;;;8.00;5.80;;;1.50;1.00;;;;;;4985889;28;20483;-80
2023/04/05 02:37:58;;;;;;;7.43;4.87;;;1.50;99.90;;;;;;4974875;28;20450;-80
2023/04/05 02:40:25;;;;;;;7.73;5.87;;;1.50;1.00;;;;;;4974617;28;20462;-79
2023/04/05 02:42:52;;;;;;;9.87;5.57;;;1.50;22.20;;;;;;4974840;28;20801;-78
2023/04/05 02:45:19;;;;;;;8.95;5.85;;;1.50;22.30;;;;;;4993380;28;20433;-79
2023/04/05 02:47:46;;;;;;;9.17;5.43;;;1.50;1.00;;;;;;4993602;28;20227;-80
2023/04/05 02:50:13;;;;;;;8.93;5.40;;;1.50;99.90;;;;;;4993919;28;20458;-78
2023/04/05 02:52:40;;;;;;;8.60;5.70;;;1.40;99.90;;;;;;4994465;28;20468;-78
2023/04/05 02:55:08;;;;;;;10.45;6.05;;;1.40;1.00;;;;;;4998175;28;20457;-79
2023/04/05 02:57:35;;;;;;;8.18;5.90;;;1.40;1.00;;;;;;4997955;28;20227;-77
2023/04/05 03:00:03;;;;;;;7.40;5.23;;;1.40;17.60;;;;;;4997502;28;20202;-78
2023/04/05 03:02:31;;;;;;;9.37;5.10;;;1.40;1.00;;;;;;4988516;28;20855;-78
2023/04/05 03:05:01;;;;;;;9.30;5.60;;;1.30;99.90;;;;;;4997513;28;20425;-79
2023/04/05 03:07:28;;;;;;;6.90;4.23;;;1.40;99.90;;;;;;4997682;28;20523;-79
2023/04/05 03:09:55;;;;;;;7.53;5.47;;;1.30;56.00;;;;;;4997259;28;20935;-78
2023/04/05 03:12:23;;;;;;;7.63;4.87;;;1.30;99.90;;;;;;4997133;28;20548;-78
2023/04/05 03:14:50;;;;;;;9.50;5.00;;;1.30;99.90;;;;;;4998464;28;20489;-78
2023/04/05 03:17:17;;;;;;;7.70;5.63;;;1.30;1.00;;;;;;4997275;28;20500;-78
2023/04/05 03:19:44;;;;;;;8.43;5.68;;;1.20;99.90;;;;;;4997771;28;20240;-79
2023/04/05 03:22:11;;;;;;;9.25;5.53;;;1.30;20.00;;;;;;4997655;28;20680;-80
2023/04/05 03:24:41;;;;;;;9.23;5.30;;;1.30;1.00;;;;;;4997264;28;20210;-78
2023/04/05 03:27:08;;;;;;;13.53;5.43;;;1.20;29.00;;;;;;4997416;28;20814;-78
2023/04/05 03:29:36;;;;;;;8.13;5.60;;;1.20;99.90;;;;;;4997160;28;20833;-79
2023/04/05 03:32:03;;;;;;;9.00;5.60;;;1.10;1.00;;;;;;4996552;28;20481;-81
2023/04/05 03:34:30;;;;;;;10.50;5.57;;;1.10;1.00;;;;;;4996731;28;20252;-78
2023/04/05 03:36:57;;;;;;;7.83;5.53;;;1.10;99.90;;;;;;4997062;28;20425;-79
2023/04/05 03:39:24;;;;;;;11.90;5.82;;;1.10;99.90;;;;;;4996972;28;20561;-80
2023/04/05 03:41:51;;;;;;;11.17;6.70;;;1.10;43.60;;;;;;4996915;28;20206;-79
2023/04/05 03:44:18;;;;;;;8.55;5.95;;;1.10;99.90;;;;;;4997608;28;20540;-79
2023/04/05 03:46:46;;;;;;;8.97;5.70;;;1.10;1.00;;;;;;4997683;28;20254;-79
2023/04/05 03:49:15;;;;;;;10.20;7.43;;;1.10;1.00;;;;;;4997157;28;20445;-78
2023/04/05 03:51:41;;;;;;;13.20;7.38;;;1.10;99.90;;;;;;4996323;28;20466;-78
2023/04/05 03:54:08;;;;;;;9.20;6.78;;;1.10;99.90;;;;;;4996756;28;20254;-80
2023/04/05 03:56:35;;;;;;;8.40;5.77;;;1.10;99.90;;;;;;4996289;28;20747;-78
2023/04/05 03:59:02;;;;;;;8.13;6.25;;;1.10;1.00;;;;;;4996688;28;20462;-79
2023/04/05 04:01:29;;;;;;;9.13;6.67;;;1.20;1.00;;;;;;4996812;28;20218;-80
2023/04/05 04:03:59;;;;;;;9.18;6.30;;;1.10;1.00;;;;;;4996471;28;20458;-79
2023/04/05 04:06:26;;;;;;;12.25;6.68;;;1.10;99.90;;;;;;4996848;28;20203;-80
2023/04/05 04:08:52;;;;;;;9.23;6.00;;;1.00;99.90;;;;;;4996029;28;20237;-79
2023/04/05 04:11:19;;;;;;;9.47;6.00;;;1.00;99.90;;;;;;4996132;28;20551;-80
2023/04/05 04:13:49;;;;;;;8.93;5.30;;;1.00;99.90;;;;;;5003544;28;20517;-80
2023/04/05 04:16:16;;;;;;;9.38;6.90;;;1.00;99.90;;;;;;5004325;28;20492;-78
2023/04/05 04:18:43;;;;;;;10.02;5.25;;;1.00;13.30;;;;;;4996336;28;20749;-80
2023/04/05 04:21:13;;;;;;;9.90;6.70;;;0.90;1.00;;;;;;4995847;28;20207;-79
2023/04/05 04:23:44;;;;;;;20.27;11.88;;;0.90;1.00;;;;;;4996172;28;20523;-78
2023/04/05 04:26:13;;;;;;;19.50;10.57;;;0.90;1.00;;;;;;4996533;28;20184;-79
2023/04/05 04:28:42;;;;;;;16.50;8.40;;;0.90;99.90;;;;;;4996796;28;20879;-80
2023/04/05 04:31:14;;;;;;;49.75;23.73;;;0.90;99.90;;;;;;4996187;28;20895;-79
2023/04/05 04:33:42;;;;;;;78.38;34.53;;;0.80;99.90;;;;;;4996585;28;20242;-80
2023/04/05 04:36:12;;;;;;;124.35;45.03;;;0.90;1.00;;;;;;4996979;28;20257;-81
2023/04/05 04:38:41;;;;;;;97.20;38.08;;;0.80;1.00;;;;;;4997339;28;20233;-80
2023/04/05 04:41:09;;;;;;;73.43;32.87;;;0.80;1.00;;;;;;5004295;28;20236;-81
2023/04/05 04:43:41;;;;;;;61.80;27.73;;;0.90;1.00;;;;;;5015263;28;20439;-80
2023/04/05 04:46:13;;;;;;;55.00;25.73;;;0.90;1.00;;;;;;5000947;28;20421;-80
2023/04/05 04:48:41;;;;;;;45.53;22.77;;;0.90;99.90;;;;;;4997504;28;20219;-80
2023/04/05 04:51:07;;;;;;;43.65;21.50;;;0.90;99.90;;;;;;4996365;28;20207;-80
2023/04/05 04:53:36;;;;;;;38.53;19.67;;;0.90;99.90;;;;;;5004065;28;20206;-81
2023/04/05 04:56:06;;;;;;;36.25;18.52;;;0.80;1.00;;;;;;5003937;28;20230;-79
2023/04/05 04:58:33;;;;;;;37.25;18.05;;;0.80;99.90;;;;;;5007421;28;20228;-85
2023/04/05 05:01:00;;;;;;;34.50;13.55;;;0.70;99.90;;;;;;5004719;28;20222;-83
2023/04/05 05:03:27;;;;;;;32.30;14.80;;;0.80;1.00;;;;;;4998524;28;20213;-84
2023/04/05 05:05:55;;;;;;;24.42;13.30;;;0.70;1.00;;;;;;4999277;28;20929;-82
2023/04/05 05:08:22;;;;;;;26.85;11.35;;;0.70;1.00;;;;;;4999955;28;20238;-82
2023/04/05 05:10:52;;;;;;;24.05;11.55;;;0.70;1.00;;;;;;4999496;28;20214;-84
2023/04/05 05:13:19;;;;;;;22.87;11.90;;;0.70;1.00;;;;;;5000638;28;20210;-85
2023/04/05 05:15:47;;;;;;;15.95;8.90;;;0.70;99.90;;;;;;5000610;28;20552;-84
2023/04/05 05:18:14;;;;;;;17.73;8.48;;;0.70;99.90;;;;;;5000836;28;20258;-84
2023/04/05 05:20:41;;;;;;;16.02;8.85;;;0.70;99.90;;;;;;4999926;28;20217;-83
2023/04/05 05:23:08;;;;;;;14.68;8.43;;;0.70;1.00;;;;;;5000741;28;20212;-85
2023/04/05 05:25:35;;;;;;;12.35;8.30;;;0.80;89.20;;;;;;5000470;28;20297;-84
2023/04/05 05:28:04;;;;;;;15.98;7.70;;;0.80;99.90;;;;;;5000478;28;20227;-83
2023/04/05 05:30:32;;;;;;;18.73;8.30;;;0.80;99.90;;;;;;5005863;28;20271;-81
2023/04/05 05:32:59;;;;;;;13.87;8.83;;;0.80;99.90;;;;;;5012051;28;20207;-83
2023/04/05 05:35:26;;;;;;;12.73;8.63;;;0.90;99.90;;;;;;5005349;28;20845;-82
2023/04/05 05:37:53;;;;;;;13.93;7.35;;;0.90;58.80;;;;;;4995667;28;20449;-83
2023/04/05 05:40:20;;;;;;;11.52;7.88;;;0.90;55.80;;;;;;4994869;28;20668;-82
2023/04/05 05:42:46;;;;;;;14.45;9.20;;;1.00;99.90;;;;;;4994059;28;20290;-81
2023/04/05 05:45:15;;;;;;;11.93;7.47;;;1.10;99.90;;;;;;4994958;28;20611;-82
2023/04/05 05:47:43;;;;;;;11.25;7.18;;;1.10;94.10;;;;;;4990719;28;20231;-83
2023/04/05 05:50:10;;;;;;;16.30;8.70;;;1.10;58.70;;;;;;4993205;28;20207;-83
2023/04/05 05:52:38;;;;;;;15.63;7.80;;;1.20;1.00;;;;;;4989782;28;20679;-83
2023/04/05 05:55:06;;;;;;;16.20;8.30;;;1.10;36.10;;;;;;4992298;28;20210;-82
2023/04/05 05:57:32;;;;;;;21.52;7.25;;;1.20;99.90;;;;;;4993458;28;20461;-82
2023/04/05 05:59:59;;;;;;;11.93;7.35;;;1.20;99.90;;;;;;4986484;28;20279;-82
2023/04/05 06:02:27;;;;;;;11.63;7.35;;;1.30;1.00;;;;;;4981496;28;20221;-81
2023/04/05 06:04:56;;;;;;;11.75;6.93;;;1.40;99.90;;;;;;4983574;28;20741;-80
2023/04/05 06:07:23;;;;;;;10.73;6.83;;;1.50;99.90;;;;;;4991445;28;20321;-81
2023/04/05 06:09:50;;;;;;;15.13;7.50;;;1.60;99.90;;;;;;4951172;28;20467;-82
2023/04/05 06:12:17;;;;;;;10.23;6.47;;;1.70;99.90;;;;;;4979599;28;20426;-84
2023/04/05 06:14:44;;;;;;;15.67;7.60;;;1.80;99.90;;;;;;4994087;28;20833;-82
2023/04/05 06:17:11;;;;;;;12.33;7.67;;;1.90;1.00;;;;;;4990699;28;20494;-81
2023/04/05 06:19:39;;;;;;;11.13;7.37;;;2.00;1.00;;;;;;4993156;28;20536;-82
2023/04/05 06:22:06;;;;;;;10.70;6.60;;;2.10;1.00;;;;;;4994014;28;20432;-82
2023/04/05 06:24:33;;;;;;;17.03;7.57;;;2.10;99.90;;;;;;4993539;28;20461;-83
2023/04/05 06:27:00;;;;;;;10.33;6.40;;;2.30;1.00;;;;;;4994123;28;20447;-82
2023/04/05 06:29:27;;;;;;;12.57;7.80;;;2.40;1.00;;;;;;4994100;28;20984;-83
2023/04/05 06:31:55;;;;;;;15.43;7.57;;;2.50;99.90;;;;;;4993906;28;20451;-83
2023/04/05 06:34:21;;;;;;;23.90;7.90;;;2.60;99.90;;;;;;4994414;28;20553;-82
2023/04/05 06:36:50;;;;;;;19.30;7.60;;;2.60;23.00;;;;;;4993912;28;20453;-82
2023/04/05 06:39:17;;;;;;;18.87;9.03;;;2.70;99.90;;;;;;4994130;28;20474;-82
2023/04/05 06:41:44;;;;;;;14.40;7.83;;;2.80;1.00;;;;;;4993533;28;20505;-82
2023/04/05 06:44:11;;;;;;;13.37;7.50;;;2.80;99.90;;;;;;4994285;28;20454;-81
2023/04/05 06:46:37;;;;;;;11.43;7.07;;;2.90;1.00;;;;;;4993986;28;20421;-81
2023/04/05 06:49:04;;;;;;;11.10;7.33;;;3.00;99.90;;;;;;4994849;28;20463;-83
2023/04/05 06:51:31;;;;;;;12.87;7.50;;;3.10;1.00;;;;;;4994943;28;20822;-81
2023/04/05 06:53:59;;;;;;;15.43;7.50;;;3.20;1.00;;;;;;4993636;28;20937;-80
2023/04/05 06:56:26;;;;;;;13.77;8.43;;;3.30;1.00;;;;;;4995363;28;20495;-81
2023/04/05 06:58:54;;;;;;;12.20;7.43;;;3.40;99.90;;;;;;4985005;28;20566;-81
2023/04/05 07:01:21;;;;;;;10.90;7.00;;;3.50;99.90;;;;;;4988797;28;20417;-80
2023/04/05 07:03:48;;;;;;;10.17;6.37;;;3.60;99.90;;;;;;4986588;28;20433;-79
2023/04/05 07:06:15;;;;;;;13.97;7.27;;;3.70;99.90;;;;;;4994512;28;20515;-80
2023/04/05 07:08:43;;;;;;;16.63;9.23;;;3.90;99.90;;;;;;4997860;28;20547;-81
2023/04/05 07:11:13;;;;;;;14.07;8.43;;;3.90;99.90;;;;;;4993498;28;20516;-83
2023/04/05 07:13:40;;;;;;;15.63;7.57;;;4.00;99.90;;;;;;4989937;28;20445;-82
2023/04/05 07:16:07;;;;;;;12.83;8.30;;;4.10;98.30;;;;;;4994957;28;20559;-83
2023/04/05 07:18:37;;;;;;;15.30;7.90;;;4.20;59.70;;;;;;4994406;28;20549;-82
2023/04/05 07:21:04;;;;;;;13.63;7.17;;;4.40;1.00;;;;;;4990054;28;20504;-82
2023/04/05 07:23:31;;;;;;;12.40;6.80;;;4.60;1.00;;;;;;4987990;28;20422;-81
2023/04/05 07:26:03;;;;;;;12.40;6.40;;;4.80;1.00;;;;;;4992085;28;20430;-81
2023/04/05 07:28:32;;;;;;;11.37;6.20;;;5.10;1.00;;;;;;4994300;28;20521;-83
2023/04/05 07:31:00;;;;;;;12.60;6.20;;;5.40;1.00;;;;;;4988309;28;20506;-81
2023/04/05 07:33:27;;;;;;;11.30;6.90;;;5.50;1.00;;;;;;4993018;28;20514;-82
2023/04/05 07:35:55;;;;;;;8.53;5.40;;;5.50;1.00;;;;;;4997749;28;20490;-81
2023/04/05 07:38:22;;;;;;;11.00;6.70;;;5.70;1.00;;;;;;4993674;28;20452;-84
2023/04/05 07:40:49;;;;;;;7.17;4.33;;;5.80;1.00;;;;;;4996335;28;20497;-81
2023/04/05 07:43:16;;;;;;;12.07;5.70;;;5.90;99.90;;;;;;5000534;28;20857;-81
2023/04/05 07:45:44;;;;;;;10.20;4.80;;;6.10;99.90;;;;;;4990125;28;20478;-82
2023/04/05 07:48:11;;;;;;;8.23;4.10;;;6.40;99.90;;;;;;4992737;28;20977;-80
2023/04/05 07:50:39;;;;;;;11.07;4.63;;;6.60;99.90;;;;;;4993592;28;20497;-81
2023/04/05 07:53:07;;;;;;;7.00;4.50;;;6.80;99.90;;;;;;4995463;28;21175;-82
2023/04/05 07:55:35;;;;;;;7.10;4.13;;;6.90;99.90;;;;;;4993556;28;20924;-81
2023/04/05 07:58:02;;;;;;;7.60;4.70;;;7.00;99.90;;;;;;4991571;28;20611;-82
2023/04/05 08:00:28;;;;;;;7.17;4.37;;;7.20;99.90;;;;;;4997559;28;20463;-82
2023/04/05 08:02:56;;;;;;;8.17;4.30;;;7.40;99.90;;;;;;4991916;28;20458;-83
2023/04/05 08:05:23;;;;;;;9.63;4.27;;;7.50;99.90;;;;;;4996850;28;20470;-81
2023/04/05 08:07:50;;;;;;;8.20;3.90;;;7.60;99.90;;;;;;4959295;28;1077958;-81
2023/04/05 08:10:17;;;;;;;7.27;4.10;;;8.00;99.90;;;;;;4996726;28;20482;-82
2023/04/05 08:12:44;;;;;;;6.77;4.00;;;8.10;99.90;;;;;;4994328;28;20455;-82
2023/04/05 08:15:11;;;;;;;7.67;3.37;;;8.10;99.90;;;;;;4980659;28;20474;-81
2023/04/05 08:17:38;;;;;;;6.53;3.80;;;8.40;99.90;;;;;;4984171;28;20492;-83
2023/04/05 08:20:08;;;;;;;6.03;3.83;;;9.30;99.90;;;;;;4994184;28;20463;-83
2023/04/05 08:22:35;;;;;;;5.90;3.23;;;10.20;99.90;;;;;;4992368;28;20463;-81
2023/04/05 08:25:01;;;;;;;5.47;4.00;;;10.30;99.90;;;;;;4991831;28;20464;-82
2023/04/05 08:27:28;;;;;;;8.90;4.07;;;11.10;99.90;;;;;;4996524;28;20457;-82
2023/04/05 08:29:55;;;;;;;6.27;4.50;;;12.20;99.90;;;;;;4994435;28;21054;-82
2023/04/05 08:32:22;;;;;;;11.40;4.90;;;13.20;99.90;;;;;;4990551;28;20480;-84
2023/04/05 08:34:49;;;;;;;6.57;3.93;;;13.90;99.90;;;;;;4982481;28;20463;-82
2023/04/05 08:37:17;;;;;;;5.40;3.50;;;14.60;99.90;;;;;;4994167;28;20495;-82
2023/04/05 08:39:44;;;;;;;6.20;3.40;;;15.40;99.90;;;;;;4981579;28;20459;-83
2023/04/05 08:42:16;;;;;;;4.23;3.10;;;16.40;99.90;;;;;;4995962;28;20473;-83
2023/04/05 08:44:45;;;;;;;9.20;3.40;;;16.80;99.90;;;;;;4996080;28;20444;-84
2023/04/05 08:47:17;;;;;;;7.57;3.97;;;18.10;99.90;;;;;;4996241;28;20497;-83
2023/04/05 08:49:44;;;;;;;7.70;3.97;;;19.40;99.90;;;;;;4994997;28;20464;-83
2023/04/05 08:52:11;;;;;;;6.80;3.97;;;18.50;99.90;;;;;;4995803;28;20489;-82
2023/04/05 08:54:39;;;;;;;6.20;3.67;;;19.90;99.90;;;;;;4996156;28;20450;-82
2023/04/05 08:57:07;;;;;;;4.93;4.20;;;21.10;99.90;;;;;;4996147;28;20504;-83
2023/04/05 08:59:36;;;;;;;6.17;4.40;;;21.40;99.90;;;;;;4996440;28;20509;-83
2023/04/05 09:02:08;;;;;;;4.77;3.57;;;21.60;99.90;;;;;;4996031;28;20459;-83
2023/04/05 09:04:43;;;;;;;6.37;3.80;;;21.60;99.90;;;;;;4996819;28;20822;-82
2023/04/05 09:07:11;;;;;;;8.63;4.57;;;21.80;99.90;;;;;;4998922;28;20441;-82
2023/04/05 09:09:42;;;;;;;6.07;4.50;;;22.60;99.90;;;;;;5001897;28;20537;-84
2023/04/05 09:12:09;;;;;;;6.13;4.60;;;22.70;99.90;;;;;;4991016;28;20451;-84
2023/04/05 09:14:37;;;;;;;6.50;4.00;;;23.40;99.90;;;;;;5001139;28;20461;-85
2023/04/05 09:17:04;;;;;;;5.30;4.10;;;23.40;99.90;;;;;;5004990;28;20538;-87
2023/04/05 09:19:31;;;;;;;7.57;4.70;;;23.20;99.90;;;;;;4999586;28;20533;-85
2023/04/05 09:21:59;;;;;;;6.00;4.00;;;24.00;99.90;;;;;;5004070;28;20865;-84
2023/04/05 09:24:33;;;;;;;6.23;3.70;;;24.70;99.90;;;;;;5004393;28;20462;-84
2023/04/05 09:27:09;;;;;;;8.40;4.33;;;25.10;99.90;;;;;;5003928;28;20445;-86
2023/04/05 09:29:37;;;;;;;5.73;4.37;;;24.90;99.90;;;;;;5003943;28;20882;-85
2023/04/05 09:32:05;;;;;;;6.93;4.53;;;24.80;99.90;;;;;;5002809;28;20530;-85
2023/04/05 09:34:33;;;;;;;6.57;4.50;;;23.30;99.90;;;;;;5003298;28;20834;-85
2023/04/05 09:37:00;;;;;;;5.83;4.57;;;24.00;99.90;;;;;;5002590;28;20474;-84
2023/04/05 09:39:32;;;;;;;6.97;4.53;;;21.90;99.90;;;;;;5001703;28;20475;-84
2023/04/05 09:42:08;;;;;;;6.80;4.60;;;21.30;99.90;;;;;;5000926;28;20454;-84
2023/04/05 09:44:50;;;;;;;8.30;4.40;;;22.70;99.90;;;;;;5002163;28;20474;-84
2023/04/05 09:47:17;;;;;;;8.90;5.00;;;23.50;99.90;;;;;;5001725;28;20443;-83
2023/04/05 09:49:44;;;;;;;6.03;4.40;;;22.70;99.90;;;;;;5001607;28;20465;-84
2023/04/05 09:52:20;;;;;;;5.87;4.30;;;23.00;99.90;;;;;;5001815;28;20529;-83
2023/04/05 09:54:47;;;;;;;6.97;3.53;;;22.30;99.90;;;;;;5001072;28;20474;-83
2023/04/05 09:57:16;;;;;;;6.53;4.60;;;24.00;99.90;;;;;;5000551;28;20999;-84
2023/04/05 09:59:42;;;;;;;6.40;4.20;;;25.10;99.90;;;;;;5000644;28;20459;-85
2023/04/05 10:02:11;;;;;;;6.63;4.83;;;25.80;99.90;;;;;;5000206;28;20454;-85
2023/04/05 10:04:42;;;;;;;6.73;5.47;;;25.00;99.90;;;;;;5001303;28;20982;-86
2023/04/05 10:07:11;;;;;;;6.17;5.20;;;23.20;99.90;;;;;;5001012;28;20820;-85
2023/04/05 10:09:39;;;;;;;5.70;4.40;;;24.40;99.90;;;;;;5001036;28;20475;-86
2023/04/05 10:12:07;;;;;;;6.20;5.40;;;25.90;99.90;;;;;;4999358;28;20494;-84
2023/04/05 10:14:36;;;;;;;5.03;3.33;;;24.20;99.90;;;;;;4996575;28;20450;-84
2023/04/05 10:17:11;;;;;;;7.33;4.30;;;24.90;99.90;;;;;;4997659;28;20486;-85
2023/04/05 10:19:55;;;;;;;5.83;4.30;;;25.20;99.90;;;;;;4996253;28;20469;-84
2023/04/05 10:22:27;;;;;;;4.43;3.50;;;26.40;99.90;;;;;;5001209;28;20992;-85
2023/04/05 10:24:59;;;;;;;4.67;4.27;;;27.30;99.90;;;;;;4997088;28;20491;-85
2023/04/05 10:27:32;;;;;;;6.67;3.90;;;26.60;99.90;;;;;;4999440;28;20427;-85
2023/04/05 10:30:07;;;;;;;6.60;4.17;;;25.10;99.90;;;;;;4997452;28;21143;-83
2023/04/05 10:32:48;;;;;;;5.13;3.90;;;24.30;99.90;;;;;;4994974;28;20462;-84
2023/04/05 10:35:18;;;;;;;5.80;4.00;;;24.60;99.90;;;;;;4995483;28;20823;-85
2023/04/05 10:37:57;;;;;;;6.60;4.23;;;23.40;99.90;;;;;;4994595;28;20501;-84
2023/04/05 10:40:29;;;;;;;7.03;3.60;;;23.00;99.90;;;;;;4995148;28;20445;-85
2023/04/05 10:42:56;;;;;;;9.97;4.87;;;24.60;99.90;;;;;;4994303;28;20449;-84
2023/04/05 10:45:27;;;;;;;5.97;3.73;;;24.00;99.90;;;;;;4995164;28;20840;-84
2023/04/05 10:47:57;;;;;;;8.20;4.40;;;25.40;99.90;;;;;;4994703;28;20466;-84
2023/04/05 10:50:25;;;;;;;8.23;4.73;;;27.20;99.90;;;;;;4994771;28;20457;-82
2023/04/05 10:52:53;;;;;;;5.13;4.10;;;24.80;99.90;;;;;;4994391;28;20484;-84
2023/04/05 10:55:20;;;;;;;4.43;4.03;;;24.80;99.90;;;;;;4994626;28;20458;-84
2023/04/05 10:57:48;;;;;;;14.23;4.87;;;24.60;99.90;;;;;;4994988;28;20482;-85
2023/04/05 11:00:16;;;;;;;11.13;4.40;;;25.70;99.90;;;;;;4993825;28;20454;-86
2023/04/05 11:02:44;;;;;;;5.30;3.57;;;27.60;99.90;;;;;;4992859;28;20537;-84
2023/04/05 11:05:31;;;;;;;5.60;4.33;;;27.80;99.90;;;;;;4994549;28;20461;-84
2023/04/05 11:08:03;;;;;;;4.97;3.60;;;28.70;99.90;;;;;;4995916;28;20478;-85
2023/04/05 11:10:30;;;;;;;7.30;3.87;;;29.00;99.90;;;;;;4997382;28;20469;-84
2023/04/05 11:13:09;;;;;;;5.20;3.80;;;29.50;99.90;;;;;;4996768;28;20451;-86
2023/04/05 11:15:36;;;;;;;6.33;3.43;;;30.30;99.90;;;;;;5001915;28;20458;-85
2023/04/05 11:18:07;;;;;;;4.83;3.97;;;30.10;99.90;;;;;;4999196;28;20526;-85
2023/04/05 11:20:41;;;;;;;4.80;4.30;;;28.40;99.90;;;;;;4995943;28;20458;-87
2023/04/05 11:23:08;;;;;;;4.40;3.60;;;26.70;99.90;;;;;;4997109;28;20536;-86
2023/04/05 11:25:38;;;;;;;5.30;3.83;;;28.20;99.90;;;;;;4996089;28;20450;-86
2023/04/05 11:28:07;;;;;;;6.10;4.20;;;28.60;99.90;;;;;;4996610;28;20557;-86
2023/04/05 11:30:50;;;;;;;5.57;4.87;;;28.90;99.90;;;;;;4996193;28;20462;-85
2023/04/05 11:33:37;;;;;;;6.47;3.90;;;27.60;99.90;;;;;;4995236;28;20463;-87
2023/04/05 11:36:04;;;;;;;5.77;4.27;;;26.60;99.90;;;;;;4994979;28;20955;-87
2023/04/05 11:38:31;;;;;;;5.60;4.30;;;25.90;99.90;;;;;;4997087;28;20486;-86
2023/04/05 11:41:06;;;;;;;5.67;4.57;;;26.80;99.90;;;;;;4986894;28;20465;-84
2023/04/05 11:43:34;;;;;;;4.40;3.87;;;28.10;99.90;;;;;;4988277;28;20852;-84
2023/04/05 11:46:03;;;;;;;6.40;4.47;;;27.70;99.90;;;;;;4995758;28;20485;-85
2023/04/05 11:48:30;;;;;;;6.90;4.43;;;27.20;99.90;;;;;;4995537;28;20482;-85
2023/04/05 11:50:58;;;;;;;7.63;4.20;;;27.80;99.90;;;;;;4995453;28;20867;-87
2023/04/05 11:53:25;;;;;;;5.83;4.23;;;29.10;99.90;;;;;;4999497;28;20448;-86
2023/04/05 11:55:54;;;;;;;8.10;4.77;;;29.10;99.90;;;;;;4995857;28;20455;-84
2023/04/05 11:58:22;;;;;;;6.20;3.70;;;28.50;99.90;;;;;;4996711;28;20517;-87
2023/04/05 12:00:58;;;;;;;5.70;5.10;;;29.40;99.90;;;;;;4996190;28;20478;-85
2023/04/05 12:03:27;;;;;;;4.80;3.53;;;27.30;99.90;;;;;;4996666;28;20462;-85
2023/04/05 12:05:55;;;;;;;7.60;3.87;;;28.10;99.90;;;;;;4996848;28;20446;-86
2023/04/05 12:08:37;;;;;;;4.60;4.20;;;25.10;99.90;;;;;;4996194;28;20984;-84
2023/04/05 12:11:07;;;;;;;4.10;3.70;;;26.60;99.90;;;;;;4989961;28;20463;-85
2023/04/05 12:13:34;;;;;;;6.70;4.20;;;27.40;99.90;;;;;;4977318;28;20462;-85
2023/04/05 12:16:04;;;;;;;5.83;3.90;;;28.90;99.90;;;;;;4996496;28;20463;-87
2023/04/05 12:18:33;;;;;;;4.53;3.43;;;29.30;99.90;;;;;;4995307;28;20516;-86
2023/04/05 12:21:01;;;;;;;4.63;4.10;;;29.70;99.90;;;;;;4995236;28;20545;-84
2023/04/05 12:23:29;;;;;;;7.80;4.03;;;29.90;99.90;;;;;;4996595;28;20453;-84
2023/04/05 12:25:57;;;;;;;6.90;4.07;;;30.50;99.90;;;;;;4995466;28;20545;-85
2023/04/05 12:28:24;;;;;;;4.40;3.13;;;29.40;99.90;;;;;;4995630;28;20466;-86
2023/04/05 12:30:52;;;;;;;5.53;3.30;;;30.30;99.90;;;;;;4996135;28;20454;-86
2023/04/05 12:33:29;;;;;;;5.47;3.20;;;31.70;99.90;;;;;;4995922;28;20455;-86
2023/04/05 12:35:56;;;;;;;6.30;4.20;;;32.20;99.90;;;;;;4989016;28;20927;-85
2023/04/05 12:38:26;;;;;;;5.03;3.80;;;31.50;99.90;;;;;;4995909;28;20499;-85
2023/04/05 12:40:54;;;;;;;4.23;3.80;;;30.70;99.90;;;;;;4995436;28;20524;-85
2023/04/05 12:43:21;;;;;;;5.40;4.33;;;30.00;99.90;;;;;;4995118;28;20482;-85
2023/04/05 12:45:49;;;;;;;5.33;4.03;;;30.10;99.90;;;;;;4995681;28;20529;-84
2023/04/05 12:48:22;;;;;;;5.30;4.47;;;29.80;99.90;;;;;;4996532;28;20470;-85
2023/04/05 12:50:50;;;;;;;3.90;3.50;;;27.60;99.90;;;;;;5008142;28;20478;-86
2023/04/05 12:53:19;;;;;;;5.90;4.00;;;28.40;99.90;;;;;;5013396;28;20470;-86
2023/04/05 12:55:49;;;;;;;6.60;4.17;;;28.50;99.90;;;;;;5014521;28;20454;-87
2023/04/05 12:58:18;;;;;;;5.77;3.97;;;28.30;99.90;;;;;;5014430;28;20509;-86
2023/04/05 13:00:45;;;;;;;4.33;3.93;;;29.60;99.90;;;;;;5013558;28;20482;-86
2023/04/05 13:03:16;;;;;;;4.50;4.03;;;30.20;99.90;;;;;;5013985;28;20490;-85